createdAt,value
2019-02-02T00:02:26.584Z,36.00
2019-02-02T00:04:57.031Z,35.93
2019-02-02T00:07:27.621Z,37.23
2019-02-02T00:09:58.090Z,35.50
2019-02-02T00:12:28.587Z,33.70
2019-02-02T00:14:58.913Z,34.97
2019-02-02T00:17:29.909Z,36.17
2019-02-02T00:20:00.349Z,35.47
2019-02-02T00:22:30.913Z,35.57
2019-02-02T00:25:01.406Z,33.53
2019-02-02T00:27:41.023Z,34.47
2019-02-02T00:30:08.084Z,35.57
2019-02-02T00:32:38.580Z,35.50
2019-02-02T00:35:09.638Z,33.90
2019-02-02T00:37:40.187Z,37.60
2019-02-02T00:40:10.803Z,35.20
2019-02-02T00:42:41.313Z,35.53
2019-02-02T00:45:12.169Z,35.20
2019-02-02T00:47:42.734Z,36.27
2019-02-02T00:50:13.464Z,33.30
2019-02-02T00:52:43.956Z,35.23
2019-02-02T00:55:14.758Z,37.27
2019-02-02T00:57:52.900Z,35.87
2019-02-02T01:00:17.779Z,36.27
2019-02-02T01:02:48.641Z,34.27
2019-02-02T01:05:19.383Z,34.03
2019-02-02T01:07:49.963Z,34.73
2019-02-02T01:10:23.562Z,36.97
2019-02-02T01:12:54.077Z,34.67
2019-02-02T01:15:24.483Z,32.63
2019-02-02T01:17:54.968Z,32.77
2019-02-02T01:20:25.388Z,36.93
2019-02-02T01:22:56.036Z,35.03
2019-02-02T01:25:26.549Z,36.77
2019-02-02T01:28:04.760Z,34.73
2019-02-02T01:30:29.120Z,37.00
2019-02-02T01:32:59.623Z,37.47
2019-02-02T01:35:30.068Z,35.87
2019-02-02T01:38:00.821Z,36.73
2019-02-02T01:40:31.375Z,37.30
2019-02-02T01:43:01.742Z,36.80
2019-02-02T01:45:32.149Z,35.13
2019-02-02T01:48:02.477Z,35.57
2019-02-02T01:50:32.797Z,37.07
2019-02-02T01:53:03.155Z,35.37
2019-02-02T01:55:33.760Z,35.70
2019-02-02T01:58:04.089Z,34.53
2019-02-02T02:00:34.712Z,36.37
2019-02-02T02:03:05.172Z,33.13
2019-02-02T02:05:35.558Z,37.70
2019-02-02T02:08:07.054Z,35.87
2019-02-02T02:10:37.533Z,36.17
2019-02-02T02:13:07.879Z,36.67
2019-02-02T02:15:38.329Z,36.53
2019-02-02T02:18:08.925Z,38.23
2019-02-02T02:20:39.353Z,35.03
2019-02-02T02:23:09.637Z,36.90
2019-02-02T02:25:40.014Z,36.77
2019-02-02T02:28:10.409Z,36.20
2019-02-02T02:30:40.864Z,35.63
2019-02-02T02:33:11.267Z,35.87
2019-02-02T02:35:41.566Z,36.23
2019-02-02T02:38:12.010Z,37.63
2019-02-02T02:40:42.360Z,38.70
2019-02-02T02:43:12.880Z,39.20
2019-02-02T02:45:43.208Z,40.83
2019-02-02T02:48:13.529Z,38.57
2019-02-02T02:50:43.966Z,37.30
2019-02-02T02:53:14.375Z,38.67
2019-02-02T02:55:44.700Z,38.40
2019-02-02T02:58:15.065Z,37.73
2019-02-02T03:00:45.444Z,38.83
2019-02-02T03:03:15.874Z,39.87
2019-02-02T03:05:46.169Z,38.33
2019-02-02T03:08:16.746Z,38.47
2019-02-02T03:10:47.256Z,38.67
2019-02-02T03:13:17.850Z,39.80
2019-02-02T03:15:49.248Z,40.03
2019-02-02T03:18:19.691Z,37.93
2019-02-02T03:21:09.161Z,40.37
2019-02-02T03:23:39.489Z,41.43
2019-02-02T03:26:10.111Z,39.80
2019-02-02T03:28:52.922Z,39.43
2019-02-02T03:31:12.501Z,39.67
2019-02-02T03:33:42.891Z,40.87
2019-02-02T03:36:13.284Z,39.53
2019-02-02T03:38:43.889Z,39.33
2019-02-02T03:41:14.283Z,41.60
2019-02-02T03:43:44.676Z,41.17
2019-02-02T03:46:15.024Z,40.73
2019-02-02T03:48:45.392Z,41.40
2019-02-02T03:51:15.885Z,42.23
2019-02-02T03:53:46.336Z,40.37
2019-02-02T03:56:17.023Z,40.53
2019-02-02T03:58:48.773Z,41.30
2019-02-02T04:01:19.220Z,43.37
2019-02-02T04:03:50.000Z,42.43
2019-02-02T04:06:20.372Z,42.10
2019-02-02T04:08:50.734Z,43.03
2019-02-02T04:11:21.361Z,41.73
2019-02-02T04:13:51.760Z,42.43
2019-02-02T04:16:22.345Z,42.47
2019-02-02T04:18:52.750Z,41.53
2019-02-02T04:21:23.075Z,40.63
2019-02-02T04:23:53.437Z,40.60
2019-02-02T04:26:23.849Z,41.90
2019-02-02T04:28:54.296Z,41.10
2019-02-02T04:31:24.831Z,44.30
2019-02-02T04:33:55.173Z,42.83
2019-02-02T04:36:25.593Z,43.17
2019-02-02T04:38:55.984Z,40.57
2019-02-02T04:41:26.318Z,41.37
2019-02-02T04:43:56.685Z,45.53
2019-02-02T04:46:27.041Z,41.97
2019-02-02T04:48:57.436Z,42.63
2019-02-02T04:51:27.793Z,44.87
2019-02-02T04:53:58.299Z,45.13
2019-02-02T04:56:28.710Z,44.63
2019-02-02T04:58:59.043Z,43.63
2019-02-02T05:01:29.346Z,47.17
2019-02-02T05:04:03.210Z,42.57
2019-02-02T05:06:33.484Z,44.50
2019-02-02T05:09:05.484Z,44.63
2019-02-02T05:11:35.889Z,42.43
2019-02-02T05:14:06.420Z,44.77
2019-02-02T05:16:36.881Z,41.63
2019-02-02T05:19:07.360Z,43.53
2019-02-02T05:21:37.841Z,43.53
2019-02-02T05:24:08.244Z,44.97
2019-02-02T05:26:38.839Z,43.47
2019-02-02T05:29:09.224Z,44.10
2019-02-02T05:31:40.693Z,42.50
2019-02-02T05:34:11.219Z,42.90
2019-02-02T05:36:41.646Z,43.03
2019-02-02T05:39:12.030Z,43.27
2019-02-02T05:41:42.391Z,45.53
2019-02-02T05:44:12.809Z,45.63
2019-02-02T05:46:43.095Z,44.13
2019-02-02T05:49:13.476Z,45.03
2019-02-02T05:51:44.875Z,43.07
2019-02-02T05:54:15.451Z,41.47
2019-02-02T05:56:45.811Z,43.57
2019-02-02T05:59:16.260Z,43.93
2019-02-02T06:01:46.728Z,41.03
2019-02-02T06:04:17.169Z,42.63
2019-02-02T06:06:47.570Z,41.07
2019-02-02T06:09:17.945Z,43.33
2019-02-02T06:11:48.419Z,46.60
2019-02-02T06:14:18.941Z,40.47
2019-02-02T06:16:49.341Z,41.70
2019-02-02T06:19:19.675Z,44.33
2019-02-02T06:21:50.056Z,40.93
2019-02-02T06:24:20.492Z,43.37
2019-02-02T06:26:50.971Z,43.43
2019-02-02T06:29:21.366Z,42.40
2019-02-02T06:31:51.868Z,43.43
2019-02-02T06:34:22.444Z,41.77
2019-02-02T06:36:52.805Z,43.73
2019-02-02T06:39:23.227Z,45.87
2019-02-02T06:41:53.601Z,45.10
2019-02-02T06:44:24.108Z,43.77
2019-02-02T06:46:54.632Z,43.47
2019-02-02T06:49:25.061Z,41.80
2019-02-02T06:51:55.571Z,41.13
2019-02-02T06:54:25.987Z,42.97
2019-02-02T06:56:56.530Z,42.30
2019-02-02T06:59:27.051Z,43.60
2019-02-02T07:01:57.434Z,43.30
2019-02-02T07:04:27.830Z,43.57
2019-02-02T07:06:58.225Z,45.50
2019-02-02T07:09:28.910Z,47.50
2019-02-02T07:11:59.423Z,44.07
2019-02-02T07:14:29.857Z,45.33
2019-02-02T07:17:00.197Z,43.83
2019-02-02T07:19:30.599Z,43.97
2019-02-02T07:22:01.148Z,42.63
2019-02-02T07:24:31.507Z,46.17
2019-02-02T07:27:01.915Z,44.67
2019-02-02T07:29:32.379Z,44.50
2019-02-02T07:32:02.936Z,43.87
2019-02-02T07:34:33.280Z,39.20
2019-02-02T07:37:03.697Z,45.43
2019-02-02T07:39:34.092Z,40.50
2019-02-02T07:42:04.447Z,44.40
2019-02-02T07:44:34.857Z,45.40
2019-02-02T07:47:05.170Z,44.23
2019-02-02T07:49:35.517Z,43.43
2019-02-02T07:52:06.027Z,43.13
2019-02-02T07:54:36.457Z,44.07
2019-02-02T07:57:06.938Z,43.03
2019-02-02T07:59:37.345Z,45.43
2019-02-02T08:02:07.870Z,43.07
2019-02-02T08:04:38.400Z,43.47
2019-02-02T08:07:08.933Z,42.43
2019-02-02T08:09:39.341Z,45.33
2019-02-02T08:12:10.095Z,46.30
2019-02-02T08:14:40.506Z,42.93
2019-02-02T08:17:12.106Z,45.23
2019-02-02T08:19:42.576Z,43.20
2019-02-02T08:22:13.093Z,44.17
2019-02-02T08:24:43.683Z,42.57
2019-02-02T08:27:14.246Z,42.30
2019-02-02T08:29:44.709Z,41.47
2019-02-02T08:32:15.133Z,44.83
2019-02-02T08:34:45.571Z,45.83
2019-02-02T08:37:16.126Z,43.10
2019-02-02T08:39:46.591Z,45.10
2019-02-02T08:42:17.132Z,45.07
2019-02-02T08:44:47.696Z,44.10
2019-02-02T08:47:18.187Z,42.30
2019-02-02T08:49:48.747Z,43.03
2019-02-02T08:52:19.252Z,44.20
2019-02-02T08:54:49.770Z,44.33
2019-02-02T08:57:20.468Z,44.13
2019-02-02T08:59:50.868Z,46.37
2019-02-02T09:02:21.842Z,44.37
2019-02-02T09:04:52.254Z,44.20
2019-02-02T09:07:22.765Z,46.00
2019-02-02T09:09:53.256Z,44.30
2019-02-02T09:12:23.595Z,44.43
2019-02-02T09:14:54.102Z,45.10
2019-02-02T09:17:24.468Z,45.10
2019-02-02T09:19:54.796Z,44.00
2019-02-02T09:22:25.361Z,45.23
2019-02-02T09:24:55.803Z,44.97
2019-02-02T09:27:26.346Z,46.87
2019-02-02T09:29:56.850Z,45.63
2019-02-02T09:32:27.367Z,45.70
2019-02-02T09:34:58.018Z,46.07
2019-02-02T09:37:28.601Z,43.00
2019-02-02T09:40:01.042Z,42.97
2019-02-02T09:42:31.591Z,43.77
2019-02-02T09:45:02.250Z,45.80
2019-02-02T09:47:32.754Z,45.30
2019-02-02T09:50:03.256Z,46.03
2019-02-02T09:52:33.728Z,44.50
2019-02-02T09:55:05.048Z,43.63
2019-02-02T09:57:37.436Z,46.80
2019-02-02T10:00:11.787Z,43.43
2019-02-02T10:02:42.329Z,46.07
2019-02-02T10:05:12.707Z,46.60
2019-02-02T10:07:43.191Z,44.43
2019-02-02T10:10:16.613Z,40.43
2019-02-02T10:12:46.967Z,45.43
2019-02-02T10:15:19.122Z,43.17
2019-02-02T10:17:50.092Z,48.33
2019-02-02T10:20:22.646Z,43.00
2019-02-02T10:22:53.367Z,44.93
2019-02-02T10:25:26.035Z,47.13
2019-02-02T10:27:56.604Z,42.03
2019-02-02T10:30:38.859Z,44.27
2019-02-02T10:33:09.911Z,46.50
2019-02-02T10:35:40.512Z,49.93
2019-02-02T10:38:11.000Z,45.13
2019-02-02T10:40:41.509Z,46.23
2019-02-02T10:43:12.337Z,44.93
2019-02-02T10:45:42.776Z,44.90
2019-02-02T10:48:13.316Z,45.50
2019-02-02T10:50:43.798Z,47.20
2019-02-02T10:53:14.234Z,45.73
2019-02-02T10:55:44.738Z,46.73
2019-02-02T10:58:15.112Z,47.30
2019-02-02T11:00:45.746Z,45.63
2019-02-02T11:03:17.341Z,45.30
2019-02-02T11:05:47.932Z,44.93
2019-02-02T11:08:18.523Z,46.27
2019-02-02T11:10:49.055Z,45.97
2019-02-02T11:13:20.472Z,47.47
2019-02-02T11:15:51.340Z,46.87
2019-02-02T11:18:21.856Z,45.00
2019-02-02T11:20:52.560Z,48.70
2019-02-02T11:23:23.233Z,45.30
2019-02-02T11:25:53.781Z,46.73
2019-02-02T11:28:24.194Z,48.97
2019-02-02T11:30:54.884Z,48.73
2019-02-02T11:33:25.590Z,49.27
2019-02-02T11:35:56.143Z,50.27
2019-02-02T11:38:26.800Z,48.40
2019-02-02T11:40:57.292Z,50.53
2019-02-02T11:43:27.934Z,51.67
2019-02-02T11:45:58.682Z,48.70
2019-02-02T11:48:29.253Z,47.30
2019-02-02T11:50:59.697Z,48.37
2019-02-02T11:53:30.285Z,51.43
2019-02-02T11:56:00.919Z,49.33
2019-02-02T11:58:31.527Z,49.40
2019-02-02T12:01:01.928Z,50.43
2019-02-02T12:03:32.470Z,48.37
2019-02-02T12:06:03.042Z,46.70
2019-02-02T12:08:33.696Z,48.53
2019-02-02T12:11:04.148Z,49.43
2019-02-02T12:13:34.686Z,52.03
2019-02-02T12:16:05.167Z,49.17
2019-02-02T12:18:35.739Z,47.37
2019-02-02T12:21:06.148Z,50.80
2019-02-02T12:23:36.857Z,49.20
2019-02-02T12:26:07.308Z,49.37
2019-02-02T12:28:37.887Z,48.73
2019-02-02T12:31:08.374Z,49.73
2019-02-02T12:33:39.275Z,52.63
2019-02-02T12:36:09.688Z,51.97
2019-02-02T12:38:40.066Z,49.73
2019-02-02T12:41:10.832Z,54.33
2019-02-02T12:43:41.249Z,52.10
2019-02-02T12:46:11.778Z,53.70
2019-02-02T12:48:43.105Z,49.67
2019-02-02T12:51:13.765Z,49.00
2019-02-02T12:53:44.303Z,50.47
2019-02-02T12:56:14.763Z,53.03
2019-02-02T12:58:45.338Z,52.00
2019-02-02T13:01:15.908Z,52.57
2019-02-02T13:03:46.563Z,52.57
2019-02-02T13:06:17.174Z,52.47
2019-02-02T13:08:47.853Z,50.37
2019-02-02T13:11:18.360Z,56.73
2019-02-02T13:13:49.042Z,53.73
2019-02-02T13:16:19.619Z,53.73
2019-02-02T13:18:50.056Z,57.37
2019-02-02T13:21:20.610Z,55.33
2019-02-02T13:23:51.193Z,56.43
2019-02-02T13:26:22.132Z,54.63
2019-02-02T13:28:55.221Z,56.93
2019-02-02T13:31:24.856Z,57.00
2019-02-02T13:33:55.429Z,62.20
2019-02-02T13:36:25.873Z,54.50
2019-02-02T13:38:56.337Z,58.73
2019-02-02T13:41:26.900Z,57.53
2019-02-02T13:43:57.394Z,63.30
2019-02-02T13:46:28.002Z,57.77
2019-02-02T13:48:58.453Z,59.50
2019-02-02T13:51:28.890Z,59.57
2019-02-02T13:53:59.677Z,60.07
2019-02-02T13:56:30.283Z,60.40
2019-02-02T13:59:01.874Z,62.00
2019-02-02T14:01:41.686Z,66.33
2019-02-02T14:04:05.875Z,63.27
2019-02-02T14:06:36.659Z,64.00
2019-02-02T14:09:09.745Z,63.37
2019-02-02T14:11:40.345Z,62.70
2019-02-02T14:14:10.894Z,65.03
2019-02-02T14:16:41.608Z,61.67
2019-02-02T14:19:12.158Z,62.80
2019-02-02T14:21:42.844Z,64.70
2019-02-02T14:24:13.400Z,64.63
2019-02-02T14:26:44.166Z,65.87
2019-02-02T14:29:14.665Z,65.17
2019-02-02T14:31:45.213Z,64.43
2019-02-02T14:34:15.700Z,66.80
2019-02-02T14:36:46.199Z,66.53
2019-02-02T14:39:17.234Z,66.90
2019-02-02T14:41:47.836Z,68.13
2019-02-02T14:44:18.428Z,69.00
2019-02-02T14:46:49.073Z,70.90
2019-02-02T14:49:19.699Z,70.80
2019-02-02T14:51:50.280Z,72.63
2019-02-02T14:54:20.775Z,72.47
2019-02-02T14:56:51.321Z,69.67
2019-02-02T14:59:21.769Z,72.53
2019-02-02T15:01:52.270Z,73.63
2019-02-02T15:04:22.925Z,75.03
2019-02-02T15:06:53.517Z,75.53
2019-02-02T15:09:26.126Z,73.13
2019-02-02T15:11:56.015Z,71.67
2019-02-02T15:14:26.710Z,76.47
2019-02-02T15:16:57.164Z,74.53
2019-02-02T15:19:27.711Z,73.77
2019-02-02T15:21:58.215Z,77.83
2019-02-02T15:24:28.703Z,77.23
2019-02-02T15:26:59.126Z,77.07
2019-02-02T15:29:29.589Z,80.03
2019-02-02T15:32:00.245Z,76.93
2019-02-02T15:34:30.718Z,76.87
2019-02-02T15:37:02.525Z,74.97
2019-02-02T15:39:33.198Z,74.00
2019-02-02T15:42:03.980Z,72.70
2019-02-02T15:44:34.661Z,74.23
2019-02-02T15:47:05.478Z,73.60
2019-02-02T15:49:36.142Z,74.30
2019-02-02T15:52:06.844Z,74.70
2019-02-02T15:54:37.475Z,75.57
2019-02-02T15:57:08.129Z,73.60
2019-02-02T15:59:38.980Z,71.67
2019-02-02T16:02:09.510Z,71.33
2019-02-02T16:04:40.137Z,71.63
2019-02-02T16:07:10.843Z,72.23
2019-02-02T16:09:42.642Z,72.90
2019-02-02T16:12:13.366Z,71.67
2019-02-02T16:14:43.985Z,69.17
2019-02-02T16:17:14.522Z,72.03
2019-02-02T16:19:45.230Z,72.50
2019-02-02T16:22:16.156Z,71.27
2019-02-02T16:24:46.685Z,72.80
2019-02-02T16:27:17.258Z,74.10
2019-02-02T16:29:47.800Z,75.33
2019-02-02T16:32:19.943Z,69.33
2019-02-02T16:34:50.736Z,71.70
2019-02-02T16:37:21.161Z,72.37
2019-02-02T16:39:51.815Z,67.93
2019-02-02T16:42:22.472Z,72.43
2019-02-02T16:44:53.430Z,70.40
2019-02-02T16:47:23.982Z,70.23
2019-02-02T16:49:54.947Z,79.00
2019-02-02T16:52:25.902Z,67.57
2019-02-02T16:54:57.294Z,70.57
2019-02-02T16:57:28.239Z,72.53
2019-02-02T16:59:59.460Z,69.47
2019-02-02T17:02:33.055Z,71.43
2019-02-02T17:05:05.867Z,73.97
2019-02-02T17:07:49.798Z,70.63
2019-02-02T17:10:34.972Z,72.03
2019-02-02T17:13:16.105Z,69.73
2019-02-02T17:15:59.846Z,70.67
2019-02-02T17:18:39.706Z,70.17
2019-02-02T17:21:29.264Z,71.33
2019-02-02T17:24:09.346Z,72.87
2019-02-02T17:26:47.858Z,72.17
2019-02-02T17:29:26.295Z,71.57
2019-02-02T17:32:17.053Z,73.83
2019-02-02T17:34:56.097Z,73.00
2019-02-02T17:37:36.802Z,71.53
2019-02-02T17:40:17.756Z,76.23
2019-02-02T17:42:56.177Z,72.63
2019-02-02T17:45:37.186Z,73.50
2019-02-02T17:48:17.905Z,75.57
2019-02-02T17:50:57.982Z,71.47
2019-02-02T17:53:41.301Z,73.17
2019-02-02T17:56:23.090Z,73.30
2019-02-02T17:58:59.468Z,71.50
2019-02-02T18:01:44.853Z,75.07
2019-02-02T18:04:26.513Z,73.60
2019-02-02T18:07:11.104Z,71.67
2019-02-02T18:09:50.432Z,73.13
2019-02-02T18:12:35.152Z,73.90
2019-02-02T18:15:15.697Z,76.03
2019-02-02T18:17:55.866Z,76.23
2019-02-02T18:20:35.462Z,74.80
2019-02-02T18:23:18.100Z,77.93
2019-02-02T18:25:57.305Z,74.80
2019-02-02T18:28:38.125Z,83.37
2019-02-02T18:31:18.557Z,79.90
2019-02-02T18:34:01.801Z,80.57
2019-02-02T18:36:38.587Z,81.17
2019-02-02T18:39:17.687Z,82.23
2019-02-02T18:42:06.616Z,82.70
2019-02-02T18:44:46.423Z,83.40
2019-02-02T18:47:27.167Z,81.73
2019-02-02T18:50:11.837Z,77.30
2019-02-02T18:52:49.987Z,81.40
2019-02-02T18:55:35.411Z,84.07
2019-02-02T18:58:13.175Z,81.17
2019-02-02T19:00:49.891Z,79.17
2019-02-02T19:03:27.629Z,81.57
2019-02-02T19:06:05.568Z,83.33
2019-02-02T19:08:41.883Z,82.47
2019-02-02T19:11:19.054Z,75.77
2019-02-02T19:13:59.849Z,80.57
2019-02-02T19:16:37.563Z,82.47
2019-02-02T19:19:14.112Z,82.83
2019-02-02T19:21:52.959Z,80.13
2019-02-02T19:24:30.356Z,80.83
2019-02-02T19:27:06.312Z,82.03
2019-02-02T19:29:43.626Z,82.40
2019-02-02T19:32:20.748Z,73.07
2019-02-02T19:35:01.163Z,79.73
2019-02-02T19:37:37.026Z,79.50
2019-02-02T19:40:14.168Z,79.93
2019-02-02T19:42:52.723Z,82.77
2019-02-02T19:45:31.439Z,77.80
2019-02-02T19:48:08.848Z,80.87
2019-02-02T19:50:45.757Z,80.87
2019-02-02T19:53:23.149Z,84.10
2019-02-02T19:56:00.569Z,81.23
2019-02-02T19:58:38.771Z,84.47
2019-02-02T20:01:16.523Z,81.70
2019-02-02T20:03:53.480Z,81.87
2019-02-02T20:06:30.361Z,85.10
2019-02-02T20:09:06.844Z,84.80
2019-02-02T20:11:43.829Z,85.60
2019-02-02T20:14:22.537Z,84.20
2019-02-02T20:16:59.648Z,83.07
2019-02-02T20:19:37.110Z,85.87
2019-02-02T20:22:13.955Z,80.87
2019-02-02T20:24:51.597Z,77.23
2019-02-02T20:27:27.976Z,84.43
2019-02-02T20:30:05.310Z,83.37
2019-02-02T20:32:41.186Z,86.17
2019-02-02T20:35:18.000Z,82.73
2019-02-02T20:37:55.186Z,82.13
2019-02-02T20:40:33.226Z,82.90
2019-02-02T20:43:08.189Z,87.10
2019-02-02T20:45:43.192Z,87.00
2019-02-02T20:48:47.889Z,76.33
2019-02-02T20:51:24.907Z,86.07
2019-02-02T20:54:02.490Z,82.00
2019-02-02T20:56:44.127Z,84.00
2019-02-02T20:59:21.102Z,79.07
2019-02-02T21:01:57.566Z,82.97
2019-02-02T21:04:35.076Z,77.50
2019-02-02T21:07:12.378Z,80.33
2019-02-02T21:09:49.328Z,76.83
2019-02-02T21:12:24.728Z,82.23
2019-02-02T21:15:00.347Z,81.07
2019-02-02T21:17:38.564Z,80.37
2019-02-02T21:20:18.609Z,79.17
2019-02-02T21:23:02.533Z,78.73
2019-02-02T21:25:38.084Z,83.37
2019-02-02T21:28:14.853Z,80.60
2019-02-02T21:30:50.232Z,80.70
2019-02-02T21:33:26.967Z,81.77
2019-02-02T21:36:04.306Z,77.30
2019-02-02T21:38:41.650Z,78.77
2019-02-02T21:41:22.271Z,76.47
2019-02-02T21:43:59.582Z,76.53
2019-02-02T21:46:35.374Z,77.47
2019-02-02T21:49:15.948Z,75.50
2019-02-02T21:51:53.230Z,70.67
2019-02-02T21:54:30.225Z,72.53
2019-02-02T21:57:06.404Z,68.90
2019-02-02T21:59:42.860Z,73.47
2019-02-02T22:02:20.419Z,71.10
2019-02-02T22:04:57.720Z,71.07
2019-02-02T22:07:35.002Z,71.13
2019-02-02T22:10:12.657Z,71.77
2019-02-02T22:12:52.430Z,71.20
2019-02-02T22:15:28.848Z,72.67
2019-02-02T22:18:05.191Z,69.17
2019-02-02T22:20:42.576Z,72.77
2019-02-02T22:23:18.977Z,69.00
2019-02-02T22:26:04.445Z,71.77
2019-02-02T22:28:41.839Z,69.33
2019-02-02T22:31:18.810Z,74.00
2019-02-02T22:33:55.575Z,73.17
2019-02-02T22:36:33.137Z,75.67
2019-02-02T22:39:12.005Z,70.03
2019-02-02T22:41:48.484Z,76.90
2019-02-02T22:44:24.923Z,74.33
2019-02-02T22:47:01.182Z,72.77
2019-02-02T22:49:37.703Z,73.50
2019-02-02T22:52:15.433Z,76.30
2019-02-02T22:54:52.369Z,80.17
2019-02-02T22:57:29.133Z,77.83
2019-02-02T23:00:05.329Z,82.63
2019-02-02T23:02:42.765Z,78.50
2019-02-02T23:05:40.656Z,80.03
2019-02-02T23:08:45.648Z,78.20
2019-02-02T23:11:52.310Z,75.00
2019-02-02T23:15:02.289Z,76.63
2019-02-02T23:17:37.706Z,76.23
2019-02-02T23:20:13.755Z,79.13
2019-02-02T23:22:50.267Z,81.67
2019-02-02T23:25:27.621Z,99.22
2019-02-02T23:28:07.544Z,80.07
2019-02-02T23:30:43.134Z,74.07
2019-02-02T23:33:21.199Z,74.13
2019-02-02T23:35:57.460Z,74.50
2019-02-02T23:38:34.320Z,75.53
2019-02-02T23:41:10.415Z,77.37
2019-02-02T23:43:47.559Z,73.60
2019-02-02T23:46:23.506Z,75.00
2019-02-02T23:49:00.820Z,75.93
2019-02-02T23:51:37.616Z,77.30
2019-02-02T23:54:14.394Z,73.87
2019-02-02T23:56:50.856Z,77.80
2019-02-02T23:59:29.240Z,75.03
